createdAt,value
2022-11-27T00:00:57.387Z,0.00
2022-11-27T00:01:57.612Z,0.00
2022-11-27T00:02:57.571Z,0.00
2022-11-27T00:03:57.457Z,0.00
2022-11-27T00:04:57.331Z,0.00
2022-11-27T00:05:57.313Z,0.00
2022-11-27T00:06:57.320Z,0.00
2022-11-27T00:07:57.328Z,0.00
2022-11-27T00:08:57.274Z,0.00
2022-11-27T00:09:57.264Z,0.00
2022-11-27T00:10:57.299Z,0.00
2022-11-27T00:11:57.253Z,0.00
2022-11-27T00:12:57.233Z,0.00
2022-11-27T00:13:57.428Z,0.00
2022-11-27T00:14:57.215Z,0.00
2022-11-27T00:15:57.298Z,0.00
2022-11-27T00:16:57.178Z,0.00
2022-11-27T00:17:57.160Z,0.00
2022-11-27T00:18:57.154Z,0.00
2022-11-27T00:19:57.139Z,0.00
2022-11-27T00:20:57.123Z,0.00
2022-11-27T00:21:57.139Z,0.00
2022-11-27T00:22:57.104Z,0.00
2022-11-27T00:24:57.264Z,0.00
2022-11-27T00:25:57.047Z,0.00
2022-11-27T00:26:57.027Z,0.00
2022-11-27T00:27:57.028Z,0.00
2022-11-27T00:28:57.001Z,0.00
2022-11-27T00:29:56.988Z,0.00
2022-11-27T00:30:57.035Z,0.00
2022-11-27T00:31:56.977Z,0.00
2022-11-27T00:32:56.949Z,0.00
2022-11-27T00:33:56.929Z,0.00
2022-11-27T00:34:56.944Z,0.00
2022-11-27T00:35:56.916Z,0.00
2022-11-27T00:37:56.930Z,0.00
2022-11-27T00:38:56.902Z,0.00
2022-11-27T00:39:56.894Z,0.00
2022-11-27T00:40:56.846Z,0.00
2022-11-27T00:41:56.815Z,0.00
2022-11-27T00:42:56.819Z,0.00
2022-11-27T00:43:56.817Z,0.00
2022-11-27T00:44:56.793Z,0.00
2022-11-27T00:45:57.037Z,0.00
2022-11-27T00:46:56.815Z,0.00
2022-11-27T00:47:56.965Z,0.00
2022-11-27T00:48:56.753Z,0.00
2022-11-27T00:49:56.709Z,0.00
2022-11-27T00:50:56.734Z,0.00
2022-11-27T00:51:56.713Z,0.00
2022-11-27T00:52:56.690Z,0.00
2022-11-27T00:53:56.663Z,0.00
2022-11-27T00:54:56.857Z,0.00
2022-11-27T00:55:56.653Z,0.00
2022-11-27T00:56:56.616Z,0.00
2022-11-27T00:57:56.608Z,0.00
2022-11-27T00:58:56.593Z,0.00
2022-11-27T00:59:56.580Z,0.00
2022-11-27T01:00:56.562Z,0.00
2022-11-27T01:01:56.626Z,0.00
2022-11-27T01:02:56.665Z,0.00
2022-11-27T01:03:56.533Z,0.00
2022-11-27T01:04:56.569Z,0.00
2022-11-27T01:05:56.513Z,0.00
2022-11-27T01:06:56.630Z,0.00
2022-11-27T01:07:56.583Z,0.00
2022-11-27T01:08:56.454Z,0.00
2022-11-27T01:09:56.441Z,0.00
2022-11-27T01:10:56.428Z,0.00
2022-11-27T01:11:56.417Z,0.00
2022-11-27T01:13:56.410Z,0.00
2022-11-27T01:14:56.376Z,0.00
2022-11-27T01:15:56.630Z,0.00
2022-11-27T01:16:56.350Z,0.00
2022-11-27T01:17:56.343Z,0.00
2022-11-27T01:18:56.318Z,0.00
2022-11-27T01:19:56.293Z,0.00
2022-11-27T01:20:56.294Z,0.00
2022-11-27T01:21:56.278Z,0.00
2022-11-27T01:22:56.299Z,0.00
2022-11-27T01:23:56.457Z,0.00
2022-11-27T01:24:56.238Z,0.00
2022-11-27T01:25:56.218Z,0.00
2022-11-27T01:26:56.258Z,0.00
2022-11-27T01:27:56.199Z,0.00
2022-11-27T01:28:56.168Z,0.00
2022-11-27T01:29:56.167Z,0.00
2022-11-27T01:30:56.203Z,0.00
2022-11-27T01:31:56.145Z,0.00
2022-11-27T01:32:56.137Z,0.00
2022-11-27T01:33:56.118Z,0.00
2022-11-27T01:34:56.089Z,0.00
2022-11-27T01:35:56.076Z,0.00
2022-11-27T01:36:56.053Z,0.00
2022-11-27T01:37:56.295Z,0.00
2022-11-27T01:38:56.064Z,0.00
2022-11-27T01:39:56.027Z,0.00
2022-11-27T01:40:56.019Z,0.00
2022-11-27T01:41:55.997Z,0.00
2022-11-27T01:42:55.986Z,0.00
2022-11-27T01:43:55.964Z,0.00
2022-11-27T01:44:55.969Z,0.00
2022-11-27T01:45:55.950Z,0.00
2022-11-27T01:46:56.014Z,0.00
2022-11-27T01:47:55.923Z,0.00
2022-11-27T01:48:55.940Z,0.00
2022-11-27T01:49:56.099Z,0.00
2022-11-27T01:50:55.882Z,0.00
2022-11-27T01:51:55.864Z,0.00
2022-11-27T01:52:55.865Z,0.00
2022-11-27T01:53:55.844Z,0.00
2022-11-27T01:54:55.852Z,0.00
2022-11-27T01:55:55.831Z,0.00
2022-11-27T01:56:55.784Z,0.00
2022-11-27T01:57:55.809Z,0.00
2022-11-27T01:58:55.760Z,0.00
2022-11-27T01:59:55.979Z,0.00
2022-11-27T02:00:55.795Z,0.00
2022-11-27T02:01:55.848Z,0.00
2022-11-27T02:02:55.791Z,0.00
2022-11-27T02:03:55.699Z,0.00
2022-11-27T02:04:55.693Z,0.00
2022-11-27T02:05:55.669Z,0.00
2022-11-27T02:06:55.676Z,0.00
2022-11-27T02:07:55.687Z,0.00
2022-11-27T02:08:55.621Z,0.00
2022-11-27T02:09:55.610Z,0.00
2022-11-27T02:10:55.623Z,0.00
2022-11-27T02:11:55.599Z,0.00
2022-11-27T02:12:55.568Z,0.00
2022-11-27T02:13:55.556Z,0.00
2022-11-27T02:14:55.543Z,0.00
2022-11-27T02:15:55.596Z,0.00
2022-11-27T02:16:55.525Z,0.00
2022-11-27T02:17:55.561Z,0.00
2022-11-27T02:18:55.508Z,0.00
2022-11-27T02:19:55.486Z,0.00
2022-11-27T02:20:55.472Z,0.00
2022-11-27T02:21:55.443Z,0.00
2022-11-27T02:22:55.442Z,0.00
2022-11-27T02:23:55.624Z,0.00
2022-11-27T02:24:55.452Z,0.00
2022-11-27T02:25:55.384Z,0.00
2022-11-27T02:26:55.389Z,0.00
2022-11-27T02:27:55.379Z,0.00
2022-11-27T02:28:55.347Z,0.00
2022-11-27T02:29:55.352Z,0.00
2022-11-27T02:30:55.374Z,0.00
2022-11-27T02:31:55.510Z,0.00
2022-11-27T02:32:55.312Z,0.00
2022-11-27T02:33:55.276Z,0.00
2022-11-27T02:34:55.274Z,0.00
2022-11-27T02:35:55.254Z,0.00
2022-11-27T02:38:55.200Z,0.00
2022-11-27T02:39:55.184Z,0.00
2022-11-27T02:40:55.182Z,0.00
2022-11-27T02:41:55.373Z,0.00
2022-11-27T02:42:55.275Z,0.00
2022-11-27T02:43:55.141Z,0.00
2022-11-27T02:44:55.151Z,0.00
2022-11-27T02:45:55.114Z,0.00
2022-11-27T02:46:55.227Z,0.00
2022-11-27T02:47:55.098Z,0.00
2022-11-27T02:48:55.710Z,0.00
2022-11-27T02:49:55.051Z,0.00
2022-11-27T02:51:55.069Z,0.00
2022-11-27T02:52:55.274Z,0.00
2022-11-27T02:53:55.022Z,0.00
2022-11-27T02:54:54.982Z,0.00
2022-11-27T02:55:54.965Z,0.00
2022-11-27T02:56:54.960Z,0.00
2022-11-27T02:57:54.958Z,0.00
2022-11-27T02:58:55.055Z,0.00
2022-11-27T02:59:54.910Z,0.00
2022-11-27T03:00:54.899Z,0.00
2022-11-27T03:01:54.984Z,0.00
2022-11-27T03:02:54.949Z,0.00
2022-11-27T03:03:54.864Z,0.00
2022-11-27T03:04:54.835Z,0.00
2022-11-27T03:05:54.826Z,0.00
2022-11-27T03:06:54.806Z,0.00
2022-11-27T03:07:54.848Z,0.00
2022-11-27T03:08:54.788Z,0.00
2022-11-27T03:09:54.768Z,0.00
2022-11-27T03:10:54.757Z,0.00
2022-11-27T03:11:54.739Z,0.00
2022-11-27T03:12:54.787Z,0.00
2022-11-27T03:13:54.735Z,0.00
2022-11-27T03:14:54.820Z,0.00
2022-11-27T03:15:54.759Z,0.00
2022-11-27T03:16:54.681Z,0.00
2022-11-27T03:17:54.851Z,0.00
2022-11-27T03:18:54.640Z,0.00
2022-11-27T03:19:54.635Z,0.00
2022-11-27T03:20:54.614Z,0.00
2022-11-27T03:22:54.578Z,0.00
2022-11-27T03:23:54.583Z,0.00
2022-11-27T03:24:54.562Z,0.00
2022-11-27T03:25:54.547Z,0.00
2022-11-27T03:26:54.548Z,0.00
2022-11-27T03:27:54.510Z,0.00
2022-11-27T03:28:54.500Z,0.00
2022-11-27T03:29:54.495Z,0.00
2022-11-27T03:30:54.694Z,0.00
2022-11-27T03:31:54.462Z,0.00
2022-11-27T03:32:54.446Z,0.00
2022-11-27T03:33:54.432Z,0.00
2022-11-27T03:34:54.415Z,0.00
2022-11-27T03:35:54.420Z,0.00
2022-11-27T03:36:54.414Z,0.00
2022-11-27T03:37:54.467Z,0.00
2022-11-27T03:38:54.359Z,0.00
2022-11-27T03:39:54.336Z,0.00
2022-11-27T03:40:54.321Z,0.00
2022-11-27T03:41:54.320Z,0.00
2022-11-27T03:42:54.292Z,0.00
2022-11-27T03:43:54.484Z,0.00
2022-11-27T03:44:54.297Z,0.00
2022-11-27T03:45:54.275Z,0.00
2022-11-27T03:46:54.400Z,0.00
2022-11-27T03:47:54.297Z,0.00
2022-11-27T03:48:54.215Z,0.00
2022-11-27T03:49:54.305Z,0.00
2022-11-27T03:50:54.202Z,0.00
2022-11-27T03:51:54.170Z,0.00
2022-11-27T03:52:54.179Z,0.00
2022-11-27T03:53:54.155Z,0.00
2022-11-27T03:54:54.182Z,0.00
2022-11-27T03:55:54.118Z,0.00
2022-11-27T03:56:54.088Z,0.00
2022-11-27T03:57:54.078Z,0.00
2022-11-27T03:58:54.263Z,0.00
2022-11-27T03:59:54.264Z,0.00
2022-11-27T04:00:54.042Z,0.00
2022-11-27T04:01:54.299Z,0.00
2022-11-27T04:02:59.966Z,0.00
2022-11-27T04:03:54.170Z,0.00
2022-11-27T04:04:53.980Z,0.00
2022-11-27T04:05:53.969Z,0.00
2022-11-27T04:06:53.948Z,0.00
2022-11-27T04:07:54.125Z,0.00
2022-11-27T04:08:53.994Z,0.00
2022-11-27T04:09:54.165Z,0.00
2022-11-27T04:10:53.886Z,0.00
2022-11-27T04:11:53.869Z,0.00
2022-11-27T04:12:53.887Z,0.00
2022-11-27T04:13:53.928Z,0.00
2022-11-27T04:14:53.911Z,0.00
2022-11-27T04:15:53.918Z,0.00
2022-11-27T04:16:53.802Z,0.00
2022-11-27T04:17:53.780Z,0.00
2022-11-27T04:18:53.792Z,0.00
2022-11-27T04:19:53.916Z,0.00
2022-11-27T04:20:53.774Z,0.00
2022-11-27T04:21:53.763Z,0.00
2022-11-27T04:22:53.740Z,0.00
2022-11-27T04:23:53.787Z,0.00
2022-11-27T04:24:53.685Z,0.00
2022-11-27T04:25:53.672Z,0.00
2022-11-27T04:26:53.645Z,0.00
2022-11-27T04:27:53.635Z,0.00
2022-11-27T04:28:53.691Z,0.00
2022-11-27T04:29:53.618Z,0.00
2022-11-27T04:30:53.639Z,0.00
2022-11-27T04:31:53.660Z,0.00
2022-11-27T04:32:53.581Z,0.00
2022-11-27T04:33:53.545Z,0.00
2022-11-27T04:34:53.608Z,0.00
2022-11-27T04:35:53.663Z,0.00
2022-11-27T04:36:53.516Z,0.00
2022-11-27T04:37:53.526Z,0.00
2022-11-27T04:38:53.526Z,0.00
2022-11-27T04:39:53.459Z,0.00
2022-11-27T04:40:53.468Z,0.00
2022-11-27T04:41:53.519Z,0.00
2022-11-27T04:42:53.652Z,0.00
2022-11-27T04:43:53.427Z,0.00
2022-11-27T04:44:53.390Z,0.00
2022-11-27T04:45:53.389Z,0.00
2022-11-27T04:46:53.502Z,0.00
2022-11-27T04:47:53.341Z,0.00
2022-11-27T04:48:53.337Z,0.00
2022-11-27T04:49:53.330Z,0.00
2022-11-27T04:50:53.320Z,0.00
2022-11-27T04:51:53.422Z,0.00
2022-11-27T04:52:53.269Z,0.00
2022-11-27T04:53:53.248Z,0.00
2022-11-27T04:54:59.570Z,0.00
2022-11-27T04:55:53.455Z,0.00
2022-11-27T04:56:53.232Z,0.00
2022-11-27T04:57:53.238Z,0.00
2022-11-27T04:58:53.223Z,0.00
2022-11-27T04:59:53.185Z,0.00
2022-11-27T05:00:53.212Z,0.00
2022-11-27T05:01:53.382Z,0.00
2022-11-27T05:02:53.251Z,0.00
2022-11-27T05:03:53.160Z,0.00
2022-11-27T05:04:53.134Z,0.00
2022-11-27T05:05:53.292Z,0.00
2022-11-27T05:06:53.142Z,0.00
2022-11-27T05:07:53.222Z,0.00
2022-11-27T05:08:53.038Z,0.00
2022-11-27T05:09:53.032Z,0.00
2022-11-27T05:10:53.299Z,0.00
2022-11-27T05:11:53.041Z,0.00
2022-11-27T05:13:53.012Z,0.00
2022-11-27T05:14:52.953Z,0.00
2022-11-27T05:15:53.021Z,0.00
2022-11-27T05:16:52.918Z,0.00
2022-11-27T05:17:52.942Z,0.00
2022-11-27T05:18:52.901Z,0.00
2022-11-27T05:19:52.978Z,0.00
2022-11-27T05:20:52.867Z,0.00
2022-11-27T05:21:52.861Z,0.00
2022-11-27T05:22:52.853Z,0.00
2022-11-27T05:23:52.955Z,0.00
2022-11-27T05:24:52.807Z,0.00
2022-11-27T05:25:52.809Z,0.00
2022-11-27T05:26:52.808Z,0.00
2022-11-27T05:27:52.841Z,0.00
2022-11-27T05:28:52.770Z,0.00
2022-11-27T05:29:52.775Z,0.00
2022-11-27T05:30:53.027Z,0.00
2022-11-27T05:31:52.856Z,0.00
2022-11-27T05:32:52.758Z,0.00
2022-11-27T05:33:52.722Z,0.00
2022-11-27T05:34:52.873Z,0.00
2022-11-27T05:35:52.879Z,0.00
2022-11-27T05:36:52.630Z,0.00
2022-11-27T05:37:52.614Z,0.00
2022-11-27T05:38:52.610Z,0.00
2022-11-27T05:39:52.702Z,0.00
2022-11-27T05:40:52.589Z,0.00
2022-11-27T05:41:52.557Z,0.00
2022-11-27T05:42:52.569Z,0.00
2022-11-27T05:43:52.520Z,0.00
2022-11-27T05:44:57.788Z,0.00
2022-11-27T05:45:52.507Z,0.00
2022-11-27T05:46:52.530Z,0.00
2022-11-27T05:47:52.472Z,0.00
2022-11-27T05:48:52.464Z,0.00
2022-11-27T05:49:52.643Z,0.00
2022-11-27T05:50:52.545Z,0.00
2022-11-27T05:51:52.422Z,0.00
2022-11-27T05:52:52.594Z,0.00
2022-11-27T05:53:52.383Z,0.00
2022-11-27T05:54:52.369Z,0.00
2022-11-27T05:56:52.488Z,0.00
2022-11-27T05:57:52.341Z,0.00
2022-11-27T05:59:52.331Z,0.00
2022-11-27T06:00:52.276Z,0.00
2022-11-27T06:01:52.334Z,0.00
2022-11-27T06:02:52.401Z,0.00
2022-11-27T06:03:52.291Z,0.00
2022-11-27T06:04:52.250Z,0.00
2022-11-27T06:05:52.189Z,0.00
2022-11-27T06:06:52.200Z,0.00
2022-11-27T06:07:52.254Z,0.00
2022-11-27T06:08:52.192Z,0.00
2022-11-27T06:09:52.142Z,0.00
2022-11-27T06:10:52.138Z,0.00
2022-11-27T06:11:52.117Z,0.00
2022-11-27T06:12:52.278Z,0.00
2022-11-27T06:13:52.073Z,0.00
2022-11-27T06:14:52.077Z,4.00
2022-11-27T06:15:52.053Z,0.00
2022-11-27T06:16:52.122Z,0.00
2022-11-27T06:17:52.025Z,0.00
2022-11-27T06:18:52.216Z,0.00
2022-11-27T06:19:51.995Z,4.00
2022-11-27T06:20:53.217Z,0.00
2022-11-27T06:21:52.064Z,4.00
2022-11-27T06:22:51.969Z,4.00
2022-11-27T06:23:51.966Z,4.00
2022-11-27T06:24:51.916Z,4.00
2022-11-27T06:25:51.935Z,4.00
2022-11-27T06:26:51.917Z,8.00
2022-11-27T06:27:51.918Z,8.00
2022-11-27T06:28:51.978Z,8.00
2022-11-27T06:29:51.888Z,8.00
2022-11-27T06:30:51.833Z,8.00
2022-11-27T06:31:51.893Z,16.00
2022-11-27T06:32:51.814Z,16.00
2022-11-27T06:33:51.847Z,20.00
2022-11-27T06:34:51.982Z,20.00
2022-11-27T06:35:51.959Z,24.00
2022-11-27T06:36:51.749Z,28.00
2022-11-27T06:37:51.732Z,32.00
2022-11-27T06:38:51.716Z,36.00
2022-11-27T06:39:51.704Z,44.00
2022-11-27T06:40:51.691Z,44.00
2022-11-27T06:41:51.708Z,48.00
2022-11-27T06:42:51.649Z,52.00
2022-11-27T06:43:51.683Z,56.00
2022-11-27T06:44:51.731Z,52.00
2022-11-27T06:45:51.845Z,60.00
2022-11-27T06:46:51.644Z,68.00
2022-11-27T06:47:51.590Z,68.00
2022-11-27T06:49:51.579Z,84.00
2022-11-27T06:50:51.545Z,88.00
2022-11-27T06:51:51.529Z,92.00
2022-11-27T06:52:51.526Z,112.00
2022-11-27T06:53:51.502Z,120.00
2022-11-27T06:54:51.490Z,132.00
2022-11-27T06:55:51.472Z,140.00
2022-11-27T06:56:51.490Z,140.00
2022-11-27T06:57:51.465Z,148.00
2022-11-27T06:58:51.435Z,152.00
2022-11-27T06:59:51.402Z,164.00
2022-11-27T07:00:51.558Z,168.00
2022-11-27T07:01:51.464Z,184.00
2022-11-27T07:02:51.414Z,200.00
2022-11-27T07:03:51.745Z,200.00
2022-11-27T07:04:51.326Z,200.00
2022-11-27T07:05:51.312Z,208.00
2022-11-27T07:06:51.299Z,220.00
2022-11-27T07:09:51.292Z,276.00
2022-11-27T07:10:51.262Z,292.00
2022-11-27T07:11:51.231Z,296.00
2022-11-27T07:12:51.236Z,312.00
2022-11-27T07:13:51.189Z,328.00
2022-11-27T07:14:51.187Z,380.00
2022-11-27T07:15:51.198Z,408.00
2022-11-27T07:16:51.411Z,456.00
2022-11-27T07:17:51.131Z,516.00
2022-11-27T07:18:51.190Z,520.00
2022-11-27T07:19:51.099Z,564.00
2022-11-27T07:20:56.074Z,604.00
2022-11-27T07:21:51.285Z,616.00
2022-11-27T07:22:51.054Z,656.00
2022-11-27T07:24:51.032Z,676.00
2022-11-27T07:25:51.010Z,668.00
2022-11-27T07:26:51.399Z,648.00
2022-11-27T07:27:50.973Z,692.00
2022-11-27T07:28:50.975Z,688.00
2022-11-27T07:29:51.008Z,744.00
2022-11-27T07:30:50.930Z,828.00
2022-11-27T07:31:51.397Z,976.00
2022-11-27T07:32:51.018Z,996.00
2022-11-27T07:33:50.887Z,900.00
2022-11-27T07:34:50.870Z,956.00
2022-11-27T07:35:51.104Z,1080.00
2022-11-27T07:36:50.856Z,1000.00
2022-11-27T07:38:50.813Z,1128.00
2022-11-27T07:40:03.659Z,1152.00
2022-11-27T07:40:52.045Z,1268.00
2022-11-27T07:41:50.776Z,1340.00
2022-11-27T07:42:50.783Z,1344.00
2022-11-27T07:43:50.760Z,1448.00
2022-11-27T07:44:50.741Z,1528.00
2022-11-27T07:45:50.831Z,1448.00
2022-11-27T07:46:50.703Z,1524.00
2022-11-27T07:47:50.677Z,1572.00
2022-11-27T07:48:50.789Z,1544.00
2022-11-27T07:49:50.650Z,1508.00
2022-11-27T07:50:50.663Z,1660.00
2022-11-27T07:51:50.869Z,1588.00
2022-11-27T07:52:50.625Z,1812.00
2022-11-27T07:53:50.614Z,1908.00
2022-11-27T07:54:50.577Z,2172.00
2022-11-27T07:55:50.579Z,1852.00
2022-11-27T07:56:50.549Z,2104.00
2022-11-27T07:57:50.617Z,2144.00
2022-11-27T07:58:50.566Z,2112.00
2022-11-27T07:59:50.509Z,2100.00
2022-11-27T08:00:50.501Z,1840.00
2022-11-27T08:01:50.480Z,1868.00
2022-11-27T08:02:50.519Z,2172.00
2022-11-27T08:03:50.498Z,2796.00
2022-11-27T08:04:50.574Z,3288.00
2022-11-27T08:05:50.416Z,2900.00
2022-11-27T08:06:50.432Z,3116.00
2022-11-27T08:07:50.433Z,3156.00
2022-11-27T08:08:50.465Z,3232.00
2022-11-27T08:09:50.357Z,2872.00
2022-11-27T08:10:50.347Z,3128.00
2022-11-27T08:11:50.345Z,4140.00
2022-11-27T08:12:50.330Z,5132.00
2022-11-27T08:13:50.505Z,9012.00
2022-11-27T08:14:50.312Z,11616.00
2022-11-27T08:15:50.472Z,8168.00
2022-11-27T08:16:50.384Z,7956.00
2022-11-27T08:17:50.246Z,10836.00
2022-11-27T08:18:50.268Z,13948.00
2022-11-27T08:19:50.207Z,10736.00
2022-11-27T08:20:50.308Z,11752.00
2022-11-27T08:21:50.283Z,9432.00
2022-11-27T08:22:50.362Z,5488.00
2022-11-27T08:23:50.372Z,6468.00
2022-11-27T08:24:50.144Z,4392.00
2022-11-27T08:25:50.137Z,5768.00
2022-11-27T08:26:50.109Z,5412.00
2022-11-27T08:27:50.110Z,6248.00
2022-11-27T08:29:50.105Z,4868.00
2022-11-27T08:30:50.055Z,5004.00
2022-11-27T08:31:50.183Z,4712.00
2022-11-27T08:32:50.235Z,4016.00
2022-11-27T08:33:50.241Z,3764.00
2022-11-27T08:34:49.998Z,5384.00
2022-11-27T08:35:50.004Z,4072.00
2022-11-27T08:36:50.106Z,5032.00
2022-11-27T08:37:49.968Z,5432.00
2022-11-27T08:38:50.079Z,5656.00
2022-11-27T08:39:49.943Z,7196.00
2022-11-27T08:40:49.954Z,7188.00
2022-11-27T08:41:49.924Z,7064.00
2022-11-27T08:42:49.903Z,7360.00
2022-11-27T08:43:49.915Z,7624.00
2022-11-27T08:44:49.903Z,6532.00
2022-11-27T08:45:49.897Z,8120.00
2022-11-27T08:46:49.856Z,9460.00
2022-11-27T08:47:49.836Z,8608.00
2022-11-27T08:48:49.828Z,8344.00
2022-11-27T08:49:49.811Z,8904.00
2022-11-27T08:50:49.821Z,8196.00
2022-11-27T08:51:49.984Z,7988.00
2022-11-27T08:52:49.879Z,9876.00
2022-11-27T08:53:49.804Z,8960.00
2022-11-27T08:54:53.221Z,8920.00
2022-11-27T08:55:49.768Z,9384.00
2022-11-27T08:56:49.731Z,9064.00
2022-11-27T08:57:49.727Z,9408.00
2022-11-27T08:58:49.826Z,8400.00
2022-11-27T08:59:49.683Z,8896.00
2022-11-27T09:00:49.734Z,7840.00
2022-11-27T09:01:49.702Z,7484.00
2022-11-27T09:02:49.650Z,7344.00
2022-11-27T09:03:49.719Z,7256.00
2022-11-27T09:04:49.634Z,7428.00
2022-11-27T09:05:49.632Z,7436.00
2022-11-27T09:06:51.963Z,7284.00
2022-11-27T09:07:49.728Z,7168.00
2022-11-27T09:08:49.750Z,7280.00
2022-11-27T09:09:49.585Z,7012.00
2022-11-27T09:10:49.606Z,7092.00
2022-11-27T09:11:49.573Z,6964.00
2022-11-27T09:12:49.560Z,7224.00
2022-11-27T09:13:49.582Z,6908.00
2022-11-27T09:14:49.547Z,6808.00
2022-11-27T09:15:49.557Z,6760.00
2022-11-27T09:16:49.627Z,6764.00
2022-11-27T09:17:49.538Z,6784.00
2022-11-27T09:18:49.527Z,6828.00
2022-11-27T09:19:49.529Z,6956.00
2022-11-27T09:20:49.522Z,6868.00
2022-11-27T09:21:49.516Z,6824.00
2022-11-27T09:22:49.522Z,6740.00
2022-11-27T09:23:49.520Z,6388.00
2022-11-27T09:24:49.845Z,6240.00
2022-11-27T09:25:49.521Z,6816.00
2022-11-27T09:26:49.483Z,7020.00
2022-11-27T09:27:49.465Z,6980.00
2022-11-27T09:28:49.517Z,7116.00
2022-11-27T09:29:49.516Z,7036.00
2022-11-27T09:30:49.547Z,7192.00
2022-11-27T09:31:49.538Z,7464.00
2022-11-27T09:32:49.455Z,8056.00
2022-11-27T09:33:49.441Z,13184.00
2022-11-27T09:34:49.552Z,27104.00
2022-11-27T09:35:49.495Z,33184.00
2022-11-27T09:36:49.448Z,22880.00
2022-11-27T09:37:49.431Z,10440.00
2022-11-27T09:38:49.463Z,7456.00
2022-11-27T09:39:49.414Z,7636.00
2022-11-27T09:40:49.544Z,7812.00
2022-11-27T09:41:49.432Z,9648.00
2022-11-27T09:42:49.434Z,21792.00
2022-11-27T09:43:49.439Z,36640.00
2022-11-27T09:44:49.480Z,46400.00
2022-11-27T09:45:49.873Z,45696.00
2022-11-27T09:46:49.420Z,41696.00
2022-11-27T09:48:49.385Z,37728.00
2022-11-27T09:49:49.384Z,36704.00
2022-11-27T09:50:49.393Z,36704.00
2022-11-27T09:51:49.377Z,37600.00
2022-11-27T09:52:49.366Z,38560.00
2022-11-27T09:53:49.373Z,37024.00
2022-11-27T09:54:52.366Z,36608.00
2022-11-27T09:55:49.363Z,34848.00
2022-11-27T09:56:49.545Z,33440.00
2022-11-27T09:57:49.366Z,32448.00
2022-11-27T09:58:49.350Z,33984.00
2022-11-27T09:59:49.352Z,33728.00
2022-11-27T10:00:49.343Z,35904.00
2022-11-27T10:01:51.251Z,28000.00
2022-11-27T10:02:49.585Z,35296.00
2022-11-27T10:03:49.332Z,40800.00
2022-11-27T10:05:12.932Z,39840.00
2022-11-27T10:05:49.357Z,19520.00
2022-11-27T10:06:49.338Z,16352.00
2022-11-27T10:07:49.384Z,14356.00
2022-11-27T10:08:49.339Z,30976.00
2022-11-27T10:09:49.515Z,33024.00
2022-11-27T10:10:49.312Z,32608.00
2022-11-27T10:11:49.332Z,34624.00
2022-11-27T10:12:49.454Z,33504.00
2022-11-27T10:13:49.324Z,32480.00
2022-11-27T10:14:49.309Z,32992.00
2022-11-27T10:15:49.314Z,30656.00
2022-11-27T10:16:49.390Z,27264.00
2022-11-27T10:17:49.291Z,31328.00
2022-11-27T10:18:49.319Z,30080.00
2022-11-27T10:19:49.359Z,30176.00
2022-11-27T10:20:49.292Z,21152.00
2022-11-27T10:21:49.285Z,21152.00
2022-11-27T10:22:49.272Z,22464.00
2022-11-27T10:23:49.275Z,22976.00
2022-11-27T10:24:49.270Z,21600.00
2022-11-27T10:25:49.272Z,17888.00
2022-11-27T10:26:49.260Z,23232.00
2022-11-27T10:27:49.265Z,15072.00
2022-11-27T10:28:49.369Z,19712.00
2022-11-27T10:29:50.466Z,14688.00
2022-11-27T10:30:49.250Z,15904.00
2022-11-27T10:31:49.324Z,10076.00
2022-11-27T10:32:56.803Z,11200.00
2022-11-27T10:33:49.302Z,17024.00
2022-11-27T10:34:49.439Z,19968.00
2022-11-27T10:35:49.210Z,22464.00
2022-11-27T10:36:49.211Z,19872.00
2022-11-27T10:37:49.223Z,12072.00
2022-11-27T10:38:49.327Z,14624.00
2022-11-27T10:39:49.206Z,19296.00
2022-11-27T10:40:49.417Z,24064.00
2022-11-27T10:41:50.179Z,23936.00
2022-11-27T10:42:49.167Z,18528.00
2022-11-27T10:43:49.176Z,15648.00
2022-11-27T10:44:49.296Z,20128.00
2022-11-27T10:45:49.271Z,16512.00
2022-11-27T10:46:49.177Z,8808.00
2022-11-27T10:47:49.155Z,11324.00
2022-11-27T10:48:49.153Z,17568.00
2022-11-27T10:49:49.142Z,14976.00
2022-11-27T10:50:49.133Z,9508.00
2022-11-27T10:51:49.154Z,6364.00
2022-11-27T10:52:52.371Z,6548.00
2022-11-27T10:53:49.147Z,8112.00
2022-11-27T10:54:49.093Z,8864.00
2022-11-27T10:55:49.094Z,15488.00
2022-11-27T10:56:49.086Z,15360.00
2022-11-27T10:57:49.291Z,15072.00
2022-11-27T10:58:49.082Z,14656.00
2022-11-27T10:59:49.086Z,14272.00
2022-11-27T11:00:49.285Z,13520.00
2022-11-27T11:01:49.178Z,13824.00
2022-11-27T11:02:49.164Z,13460.00
2022-11-27T11:03:49.053Z,11900.00
2022-11-27T11:05:09.183Z,10696.00
2022-11-27T11:06:18.758Z,10716.00
2022-11-27T11:06:49.008Z,11136.00
2022-11-27T11:07:49.058Z,11172.00
2022-11-27T11:08:48.998Z,11568.00
2022-11-27T11:09:48.994Z,11940.00
2022-11-27T11:10:48.986Z,12196.00
2022-11-27T11:11:49.050Z,12092.00
2022-11-27T11:12:49.009Z,11272.00
2022-11-27T11:13:48.957Z,11260.00
2022-11-27T11:14:48.951Z,11848.00
2022-11-27T11:15:51.828Z,11396.00
2022-11-27T11:16:54.989Z,10132.00
2022-11-27T11:17:49.059Z,9604.00
2022-11-27T11:18:49.022Z,9812.00
2022-11-27T11:19:48.969Z,9388.00
2022-11-27T11:20:48.901Z,6956.00
2022-11-27T11:21:48.959Z,4692.00
2022-11-27T11:22:48.917Z,4016.00
2022-11-27T11:23:48.895Z,3868.00
2022-11-27T11:24:48.882Z,3816.00
2022-11-27T11:25:48.879Z,3768.00
2022-11-27T11:26:48.874Z,3760.00
2022-11-27T11:27:49.065Z,3744.00
2022-11-27T11:28:48.845Z,3724.00
2022-11-27T11:29:48.836Z,3692.00
2022-11-27T11:30:48.852Z,3688.00
2022-11-27T11:31:48.985Z,3508.00
2022-11-27T11:32:48.811Z,3552.00
2022-11-27T11:33:48.923Z,3560.00
2022-11-27T11:34:48.806Z,3608.00
2022-11-27T11:35:48.811Z,3580.00
2022-11-27T11:36:48.783Z,3544.00
2022-11-27T11:37:48.966Z,3548.00
2022-11-27T11:38:48.786Z,3520.00
2022-11-27T11:39:48.761Z,3464.00
2022-11-27T11:40:48.752Z,3560.00
2022-11-27T11:41:48.747Z,3728.00
2022-11-27T11:42:48.778Z,3880.00
2022-11-27T11:43:48.719Z,4344.00
2022-11-27T11:44:48.717Z,4884.00
2022-11-27T11:45:48.853Z,5036.00
2022-11-27T11:46:48.700Z,4960.00
2022-11-27T11:47:48.691Z,4716.00
2022-11-27T11:48:48.683Z,4000.00
2022-11-27T11:49:48.787Z,4092.00
2022-11-27T11:50:48.683Z,4192.00
2022-11-27T11:51:48.889Z,3828.00
2022-11-27T11:52:48.849Z,3460.00
2022-11-27T11:53:48.842Z,3620.00
2022-11-27T11:54:48.836Z,3608.00
2022-11-27T11:55:48.617Z,3304.00
2022-11-27T11:56:48.661Z,3116.00
2022-11-27T11:57:48.680Z,3012.00
2022-11-27T11:58:48.642Z,2948.00
2022-11-27T11:59:48.576Z,2892.00
2022-11-27T12:01:11.821Z,2852.00
2022-11-27T12:01:48.669Z,2796.00
2022-11-27T12:02:48.635Z,2844.00
2022-11-27T12:03:48.749Z,2896.00
2022-11-27T12:04:48.799Z,2860.00
2022-11-27T12:05:48.721Z,2760.00
2022-11-27T12:06:48.514Z,2920.00
2022-11-27T12:07:52.221Z,2952.00
2022-11-27T12:08:48.502Z,2760.00
2022-11-27T12:09:48.487Z,2340.00
2022-11-27T12:10:48.488Z,2336.00
2022-11-27T12:11:48.505Z,2220.00
2022-11-27T12:12:48.467Z,2176.00
2022-11-27T12:13:48.459Z,2344.00
2022-11-27T12:14:48.434Z,2084.00
2022-11-27T12:15:48.427Z,1968.00
2022-11-27T12:16:48.956Z,1944.00
2022-11-27T12:17:48.436Z,1872.00
2022-11-27T12:18:48.428Z,1832.00
2022-11-27T12:19:48.408Z,1800.00
2022-11-27T12:20:48.396Z,1784.00
2022-11-27T12:21:48.545Z,1768.00
2022-11-27T12:22:48.357Z,1768.00
2022-11-27T12:24:48.334Z,1780.00
2022-11-27T12:25:48.335Z,1780.00
2022-11-27T12:26:48.548Z,1788.00
2022-11-27T12:27:48.338Z,1792.00
2022-11-27T12:28:48.321Z,1784.00
2022-11-27T12:29:48.693Z,1788.00
2022-11-27T12:30:48.301Z,1784.00
2022-11-27T12:31:48.458Z,1780.00
2022-11-27T12:32:48.283Z,1776.00
2022-11-27T12:33:48.248Z,1772.00
2022-11-27T12:34:48.249Z,1768.00
2022-11-27T12:35:48.412Z,1764.00
2022-11-27T12:36:48.210Z,1760.00
2022-11-27T12:37:48.312Z,1760.00
2022-11-27T12:38:48.191Z,1768.00
2022-11-27T12:39:48.363Z,1780.00
2022-11-27T12:40:48.177Z,1792.00
2022-11-27T12:41:48.148Z,1800.00
2022-11-27T12:42:48.149Z,1796.00
2022-11-27T12:43:48.125Z,1792.00
2022-11-27T12:44:48.134Z,1780.00
2022-11-27T12:45:48.201Z,1764.00
2022-11-27T12:46:48.174Z,1744.00
2022-11-27T12:47:48.111Z,1728.00
2022-11-27T12:48:48.112Z,1704.00
2022-11-27T12:49:48.111Z,1680.00
2022-11-27T12:50:48.067Z,1648.00
2022-11-27T12:53:48.140Z,1580.00
2022-11-27T12:54:48.048Z,1572.00
2022-11-27T12:55:48.005Z,1560.00
2022-11-27T12:56:48.005Z,1548.00
2022-11-27T12:57:47.989Z,1528.00
2022-11-27T12:58:47.991Z,1508.00
2022-11-27T12:59:47.972Z,1500.00